sensor_id;sensor_type;location;lat;lon;timestamp;temperature;humidity
40670;DHT22;26355;45.528;9.234;2022-11-24T00:01:14;10.30;99.90
40670;DHT22;26355;45.528;9.234;2022-11-24T00:03:41;10.40;99.90
40670;DHT22;26355;45.528;9.234;2022-11-24T00:06:14;10.20;99.90
40670;DHT22;26355;45.528;9.234;2022-11-24T00:08:43;11.10;99.90
40670;DHT22;26355;45.528;9.234;2022-11-24T00:11:15;11.10;99.90
40670;DHT22;26355;45.528;9.234;2022-11-24T00:13:41;10.30;99.90
40670;DHT22;26355;45.528;9.234;2022-11-24T00:16:12;10.20;99.90
40670;DHT22;26355;45.528;9.234;2022-11-24T00:18:40;10.30;99.90
40670;DHT22;26355;45.528;9.234;2022-11-24T00:21:06;10.80;99.90
40670;DHT22;26355;45.528;9.234;2022-11-24T00:23:32;10.50;99.90
40670;DHT22;26355;45.528;9.234;2022-11-24T00:26:22;10.60;99.90
40670;DHT22;26355;45.528;9.234;2022-11-24T00:28:49;10.90;99.90
40670;DHT22;26355;45.528;9.234;2022-11-24T00:31:22;10.00;99.90
40670;DHT22;26355;45.528;9.234;2022-11-24T00:33:50;10.10;99.90
40670;DHT22;26355;45.528;9.234;2022-11-24T00:36:17;10.10;99.90
40670;DHT22;26355;45.528;9.234;2022-11-24T00:38:43;10.90;99.90
40670;DHT22;26355;45.528;9.234;2022-11-24T00:41:09;10.10;99.90
40670;DHT22;26355;45.528;9.234;2022-11-24T00:43:35;10.90;99.90
40670;DHT22;26355;45.528;9.234;2022-11-24T00:46:01;10.00;99.90
40670;DHT22;26355;45.528;9.234;2022-11-24T00:48:27;10.50;99.90
40670;DHT22;26355;45.528;9.234;2022-11-24T00:50:58;10.10;99.90
40670;DHT22;26355;45.528;9.234;2022-11-24T00:53:24;10.00;99.90
40670;DHT22;26355;45.528;9.234;2022-11-24T00:55:50;9.90;99.90
40670;DHT22;26355;45.528;9.234;2022-11-24T00:58:16;10.00;99.90
40670;DHT22;26355;45.528;9.234;2022-11-24T01:00:42;9.80;99.90
40670;DHT22;26355;45.528;9.234;2022-11-24T01:03:07;9.90;99.90
40670;DHT22;26355;45.528;9.234;2022-11-24T01:05:37;9.90;99.90
40670;DHT22;26355;45.528;9.234;2022-11-24T01:08:37;9.90;99.90
40670;DHT22;26355;45.528;9.234;2022-11-24T01:11:26;9.90;99.90
40670;DHT22;26355;45.528;9.234;2022-11-24T01:13:57;10.00;99.90
40670;DHT22;26355;45.528;9.234;2022-11-24T01:18:49;10.00;99.90
40670;DHT22;26355;45.528;9.234;2022-11-24T01:21:15;10.90;99.90
40670;DHT22;26355;45.528;9.234;2022-11-24T01:23:41;10.60;99.90
40670;DHT22;26355;45.528;9.234;2022-11-24T01:26:09;11.10;99.90
40670;DHT22;26355;45.528;9.234;2022-11-24T01:28:35;9.80;99.90
40670;DHT22;26355;45.528;9.234;2022-11-24T01:31:03;9.80;99.90
40670;DHT22;26355;45.528;9.234;2022-11-24T01:33:29;9.80;99.90
40670;DHT22;26355;45.528;9.234;2022-11-24T01:35:56;9.80;99.90
40670;DHT22;26355;45.528;9.234;2022-11-24T01:38:23;9.60;99.90
40670;DHT22;26355;45.528;9.234;2022-11-24T01:40:49;9.60;99.90
40670;DHT22;26355;45.528;9.234;2022-11-24T01:43:17;10.10;99.90
40670;DHT22;26355;45.528;9.234;2022-11-24T01:45:43;11.60;99.90
40670;DHT22;26355;45.528;9.234;2022-11-24T01:48:24;9.70;99.90
40670;DHT22;26355;45.528;9.234;2022-11-24T01:50:54;9.60;99.90
40670;DHT22;26355;45.528;9.234;2022-11-24T01:53:24;9.40;99.90
40670;DHT22;26355;45.528;9.234;2022-11-24T01:55:50;10.60;99.90
40670;DHT22;26355;45.528;9.234;2022-11-24T01:58:23;9.50;99.90
40670;DHT22;26355;45.528;9.234;2022-11-24T02:00:51;9.40;99.90
40670;DHT22;26355;45.528;9.234;2022-11-24T02:03:21;10.00;99.90
40670;DHT22;26355;45.528;9.234;2022-11-24T02:05:50;11.20;99.90
40670;DHT22;26355;45.528;9.234;2022-11-24T02:11:04;10.50;99.90
40670;DHT22;26355;45.528;9.234;2022-11-24T02:13:33;9.30;99.90
40670;DHT22;26355;45.528;9.234;2022-11-24T02:16:00;9.30;99.90
40670;DHT22;26355;45.528;9.234;2022-11-24T02:18:26;10.10;99.90
40670;DHT22;26355;45.528;9.234;2022-11-24T02:20:52;9.30;99.90
40670;DHT22;26355;45.528;9.234;2022-11-24T02:23:23;9.30;99.90
40670;DHT22;26355;45.528;9.234;2022-11-24T02:28:20;10.50;99.90
40670;DHT22;26355;45.528;9.234;2022-11-24T02:30:46;10.30;99.90
40670;DHT22;26355;45.528;9.234;2022-11-24T02:33:13;10.60;99.90
40670;DHT22;26355;45.528;9.234;2022-11-24T02:35:39;9.10;99.90
40670;DHT22;26355;45.528;9.234;2022-11-24T02:38:04;9.80;99.90
40670;DHT22;26355;45.528;9.234;2022-11-24T02:40:31;9.10;99.90
40670;DHT22;26355;45.528;9.234;2022-11-24T02:43:06;9.90;99.90
40670;DHT22;26355;45.528;9.234;2022-11-24T02:45:34;9.50;99.90
40670;DHT22;26355;45.528;9.234;2022-11-24T02:47:59;8.90;99.90
40670;DHT22;26355;45.528;9.234;2022-11-24T02:50:25;8.90;99.90
40670;DHT22;26355;45.528;9.234;2022-11-24T02:52:51;9.70;99.90
40670;DHT22;26355;45.528;9.234;2022-11-24T02:55:16;9.00;99.90
40670;DHT22;26355;45.528;9.234;2022-11-24T02:57:42;10.70;99.90
40670;DHT22;26355;45.528;9.234;2022-11-24T03:00:08;9.70;99.90
40670;DHT22;26355;45.528;9.234;2022-11-24T03:05:56;8.60;99.90
40670;DHT22;26355;45.528;9.234;2022-11-24T03:08:21;8.60;99.90
40670;DHT22;26355;45.528;9.234;2022-11-24T03:10:47;9.20;99.90
40670;DHT22;26355;45.528;9.234;2022-11-24T03:13:13;9.00;99.90
40670;DHT22;26355;45.528;9.234;2022-11-24T03:15:39;9.40;99.90
40670;DHT22;26355;45.528;9.234;2022-11-24T03:18:05;8.70;99.90
40670;DHT22;26355;45.528;9.234;2022-11-24T03:20:31;8.70;99.90
40670;DHT22;26355;45.528;9.234;2022-11-24T03:22:56;9.30;99.90
40670;DHT22;26355;45.528;9.234;2022-11-24T03:25:22;9.50;99.90
40670;DHT22;26355;45.528;9.234;2022-11-24T03:27:48;8.50;99.90
40670;DHT22;26355;45.528;9.234;2022-11-24T03:30:13;8.40;99.90
40670;DHT22;26355;45.528;9.234;2022-11-24T03:32:39;8.40;99.90
40670;DHT22;26355;45.528;9.234;2022-11-24T03:35:06;8.90;99.90
40670;DHT22;26355;45.528;9.234;2022-11-24T03:37:32;8.50;99.90
40670;DHT22;26355;45.528;9.234;2022-11-24T03:39:57;8.60;99.90
40670;DHT22;26355;45.528;9.234;2022-11-24T03:42:23;9.50;99.90
40670;DHT22;26355;45.528;9.234;2022-11-24T03:44:49;8.90;99.90
40670;DHT22;26355;45.528;9.234;2022-11-24T03:47:15;8.80;99.90
40670;DHT22;26355;45.528;9.234;2022-11-24T03:49:40;9.20;99.90
40670;DHT22;26355;45.528;9.234;2022-11-24T03:52:07;9.50;99.90
40670;DHT22;26355;45.528;9.234;2022-11-24T03:54:32;8.60;99.90
40670;DHT22;26355;45.528;9.234;2022-11-24T03:56:58;9.60;99.90
40670;DHT22;26355;45.528;9.234;2022-11-24T03:59:24;9.90;99.90
40670;DHT22;26355;45.528;9.234;2022-11-24T04:01:49;8.60;99.90
40670;DHT22;26355;45.528;9.234;2022-11-24T04:04:15;8.70;99.90
40670;DHT22;26355;45.528;9.234;2022-11-24T04:06:41;9.20;99.90
40670;DHT22;26355;45.528;9.234;2022-11-24T04:09:06;8.60;99.90
40670;DHT22;26355;45.528;9.234;2022-11-24T04:11:32;9.30;99.90
40670;DHT22;26355;45.528;9.234;2022-11-24T04:14:17;9.70;99.90
40670;DHT22;26355;45.528;9.234;2022-11-24T04:20:03;8.40;99.90
40670;DHT22;26355;45.528;9.234;2022-11-24T04:22:29;8.60;99.90
40670;DHT22;26355;45.528;9.234;2022-11-24T04:24:55;8.70;99.90
40670;DHT22;26355;45.528;9.234;2022-11-24T04:27:21;8.50;99.90
40670;DHT22;26355;45.528;9.234;2022-11-24T04:29:46;8.60;99.90
40670;DHT22;26355;45.528;9.234;2022-11-24T04:32:12;9.80;99.90
40670;DHT22;26355;45.528;9.234;2022-11-24T04:34:37;9.00;99.90
40670;DHT22;26355;45.528;9.234;2022-11-24T04:37:03;9.60;99.90
40670;DHT22;26355;45.528;9.234;2022-11-24T04:39:29;8.70;99.90
40670;DHT22;26355;45.528;9.234;2022-11-24T04:41:54;9.80;99.90
40670;DHT22;26355;45.528;9.234;2022-11-24T04:44:20;9.70;99.90
40670;DHT22;26355;45.528;9.234;2022-11-24T04:46:45;11.10;99.90
40670;DHT22;26355;45.528;9.234;2022-11-24T04:49:11;9.80;99.90
40670;DHT22;26355;45.528;9.234;2022-11-24T04:51:41;9.00;99.90
40670;DHT22;26355;45.528;9.234;2022-11-24T04:54:08;8.70;99.90
40670;DHT22;26355;45.528;9.234;2022-11-24T04:56:34;9.00;99.90
40670;DHT22;26355;45.528;9.234;2022-11-24T04:59:00;9.50;99.90
40670;DHT22;26355;45.528;9.234;2022-11-24T05:01:26;10.10;99.90
40670;DHT22;26355;45.528;9.234;2022-11-24T05:03:53;10.20;99.90
40670;DHT22;26355;45.528;9.234;2022-11-24T05:06:19;8.80;99.90
40670;DHT22;26355;45.528;9.234;2022-11-24T05:08:49;9.40;99.90
40670;DHT22;26355;45.528;9.234;2022-11-24T05:11:14;9.50;99.90
40670;DHT22;26355;45.528;9.234;2022-11-24T05:13:40;8.80;99.90
40670;DHT22;26355;45.528;9.234;2022-11-24T05:16:06;9.00;99.90
40670;DHT22;26355;45.528;9.234;2022-11-24T05:18:32;10.30;99.90
40670;DHT22;26355;45.528;9.234;2022-11-24T05:20:58;8.90;99.90
40670;DHT22;26355;45.528;9.234;2022-11-24T05:23:24;8.70;99.90
40670;DHT22;26355;45.528;9.234;2022-11-24T05:25:50;9.30;99.90
40670;DHT22;26355;45.528;9.234;2022-11-24T05:28:17;8.90;99.90
40670;DHT22;26355;45.528;9.234;2022-11-24T05:30:43;8.80;99.90
40670;DHT22;26355;45.528;9.234;2022-11-24T05:33:14;8.90;99.90
40670;DHT22;26355;45.528;9.234;2022-11-24T05:35:46;10.10;99.90
40670;DHT22;26355;45.528;9.234;2022-11-24T05:38:14;9.10;99.90
40670;DHT22;26355;45.528;9.234;2022-11-24T05:40:40;10.10;99.90
40670;DHT22;26355;45.528;9.234;2022-11-24T05:43:10;10.20;99.90
40670;DHT22;26355;45.528;9.234;2022-11-24T05:45:36;10.20;99.90
40670;DHT22;26355;45.528;9.234;2022-11-24T05:48:12;10.60;99.90
40670;DHT22;26355;45.528;9.234;2022-11-24T05:50:38;9.10;99.90
40670;DHT22;26355;45.528;9.234;2022-11-24T05:53:09;9.60;99.90
40670;DHT22;26355;45.528;9.234;2022-11-24T05:55:36;9.50;99.90
40670;DHT22;26355;45.528;9.234;2022-11-24T05:58:03;9.50;99.90
40670;DHT22;26355;45.528;9.234;2022-11-24T06:00:30;9.40;99.90
40670;DHT22;26355;45.528;9.234;2022-11-24T06:02:57;9.20;99.90
40670;DHT22;26355;45.528;9.234;2022-11-24T06:05:23;9.50;99.90
40670;DHT22;26355;45.528;9.234;2022-11-24T06:07:49;9.50;99.90
40670;DHT22;26355;45.528;9.234;2022-11-24T06:10:16;9.50;99.90
40670;DHT22;26355;45.528;9.234;2022-11-24T06:12:42;9.40;99.90
40670;DHT22;26355;45.528;9.234;2022-11-24T06:15:08;9.30;99.90
40670;DHT22;26355;45.528;9.234;2022-11-24T06:17:34;9.40;99.90
40670;DHT22;26355;45.528;9.234;2022-11-24T06:19:59;9.30;99.90
40670;DHT22;26355;45.528;9.234;2022-11-24T06:22:25;9.00;99.90
40670;DHT22;26355;45.528;9.234;2022-11-24T06:24:50;9.00;99.90
40670;DHT22;26355;45.528;9.234;2022-11-24T06:27:16;8.60;99.90
40670;DHT22;26355;45.528;9.234;2022-11-24T06:29:42;8.70;99.90
40670;DHT22;26355;45.528;9.234;2022-11-24T06:32:08;8.80;99.90
40670;DHT22;26355;45.528;9.234;2022-11-24T06:34:33;9.10;99.90
40670;DHT22;26355;45.528;9.234;2022-11-24T06:36:59;8.70;99.90
40670;DHT22;26355;45.528;9.234;2022-11-24T06:39:25;10.00;99.90
40670;DHT22;26355;45.528;9.234;2022-11-24T06:41:51;8.80;99.90
40670;DHT22;26355;45.528;9.234;2022-11-24T06:44:17;9.10;99.90
40670;DHT22;26355;45.528;9.234;2022-11-24T06:46:43;10.10;99.90
40670;DHT22;26355;45.528;9.234;2022-11-24T06:49:09;9.70;99.90
40670;DHT22;26355;45.528;9.234;2022-11-24T06:51:35;9.20;99.90
40670;DHT22;26355;45.528;9.234;2022-11-24T06:54:00;9.20;99.90
40670;DHT22;26355;45.528;9.234;2022-11-24T06:56:26;9.00;99.90
40670;DHT22;26355;45.528;9.234;2022-11-24T06:58:52;9.10;99.90
40670;DHT22;26355;45.528;9.234;2022-11-24T07:01:28;9.30;99.90
40670;DHT22;26355;45.528;9.234;2022-11-24T07:03:54;9.00;99.90
40670;DHT22;26355;45.528;9.234;2022-11-24T07:06:22;9.30;99.90
40670;DHT22;26355;45.528;9.234;2022-11-24T07:08:48;9.20;99.90
40670;DHT22;26355;45.528;9.234;2022-11-24T07:11:19;9.10;99.90
40670;DHT22;26355;45.528;9.234;2022-11-24T07:13:46;9.00;99.90
40670;DHT22;26355;45.528;9.234;2022-11-24T07:16:20;9.10;99.90
40670;DHT22;26355;45.528;9.234;2022-11-24T07:18:47;9.20;99.90
40670;DHT22;26355;45.528;9.234;2022-11-24T07:21:13;9.30;99.90
40670;DHT22;26355;45.528;9.234;2022-11-24T07:23:39;9.20;99.90
40670;DHT22;26355;45.528;9.234;2022-11-24T07:26:06;9.30;99.90
40670;DHT22;26355;45.528;9.234;2022-11-24T07:28:32;9.20;99.90
40670;DHT22;26355;45.528;9.234;2022-11-24T07:30:58;9.30;99.90
40670;DHT22;26355;45.528;9.234;2022-11-24T07:33:28;9.30;99.90
40670;DHT22;26355;45.528;9.234;2022-11-24T07:35:58;10.40;99.90
40670;DHT22;26355;45.528;9.234;2022-11-24T07:38:24;9.40;99.90
40670;DHT22;26355;45.528;9.234;2022-11-24T07:40:49;9.20;99.90
40670;DHT22;26355;45.528;9.234;2022-11-24T07:43:15;9.50;99.90
40670;DHT22;26355;45.528;9.234;2022-11-24T07:45:40;10.60;99.90
40670;DHT22;26355;45.528;9.234;2022-11-24T07:48:06;10.20;99.90
40670;DHT22;26355;45.528;9.234;2022-11-24T07:50:31;9.80;99.90
40670;DHT22;26355;45.528;9.234;2022-11-24T07:53:04;9.80;99.90
40670;DHT22;26355;45.528;9.234;2022-11-24T07:55:29;9.80;99.90
40670;DHT22;26355;45.528;9.234;2022-11-24T07:57:59;12.20;99.90
40670;DHT22;26355;45.528;9.234;2022-11-24T08:00:25;11.90;99.90
40670;DHT22;26355;45.528;9.234;2022-11-24T08:02:51;10.10;99.90
40670;DHT22;26355;45.528;9.234;2022-11-24T08:05:17;10.00;99.90
40670;DHT22;26355;45.528;9.234;2022-11-24T08:07:42;10.20;99.90
40670;DHT22;26355;45.528;9.234;2022-11-24T08:10:08;10.30;99.90
40670;DHT22;26355;45.528;9.234;2022-11-24T08:12:33;10.40;99.90
40670;DHT22;26355;45.528;9.234;2022-11-24T08:14:59;10.40;99.90
40670;DHT22;26355;45.528;9.234;2022-11-24T08:17:25;10.40;99.90
40670;DHT22;26355;45.528;9.234;2022-11-24T08:19:52;11.10;99.90
40670;DHT22;26355;45.528;9.234;2022-11-24T08:22:17;11.30;99.90
40670;DHT22;26355;45.528;9.234;2022-11-24T08:24:43;11.50;99.90
40670;DHT22;26355;45.528;9.234;2022-11-24T08:27:13;11.40;99.90
40670;DHT22;26355;45.528;9.234;2022-11-24T08:29:38;11.50;99.90
40670;DHT22;26355;45.528;9.234;2022-11-24T08:32:04;11.50;99.90
40670;DHT22;26355;45.528;9.234;2022-11-24T08:34:30;11.50;99.90
40670;DHT22;26355;45.528;9.234;2022-11-24T08:36:55;13.30;99.90
40670;DHT22;26355;45.528;9.234;2022-11-24T08:39:21;11.30;99.90
40670;DHT22;26355;45.528;9.234;2022-11-24T08:41:47;11.30;99.90
40670;DHT22;26355;45.528;9.234;2022-11-24T08:44:12;11.20;99.90
40670;DHT22;26355;45.528;9.234;2022-11-24T08:46:52;11.20;99.90
40670;DHT22;26355;45.528;9.234;2022-11-24T08:49:18;11.00;99.90
40670;DHT22;26355;45.528;9.234;2022-11-24T08:51:43;11.10;99.90
40670;DHT22;26355;45.528;9.234;2022-11-24T08:54:11;11.00;99.90
40670;DHT22;26355;45.528;9.234;2022-11-24T08:56:39;12.10;99.90
40670;DHT22;26355;45.528;9.234;2022-11-24T08:59:05;10.80;99.90
40670;DHT22;26355;45.528;9.234;2022-11-24T09:01:31;11.00;99.90
40670;DHT22;26355;45.528;9.234;2022-11-24T09:03:57;12.40;99.90
40670;DHT22;26355;45.528;9.234;2022-11-24T09:06:25;11.60;99.90
40670;DHT22;26355;45.528;9.234;2022-11-24T09:08:53;11.90;99.90
40670;DHT22;26355;45.528;9.234;2022-11-24T09:11:20;12.40;99.90
40670;DHT22;26355;45.528;9.234;2022-11-24T09:13:46;13.90;99.90
40670;DHT22;26355;45.528;9.234;2022-11-24T09:16:17;13.50;99.90
40670;DHT22;26355;45.528;9.234;2022-11-24T09:19:00;13.50;99.90
40670;DHT22;26355;45.528;9.234;2022-11-24T09:21:26;13.50;99.90
40670;DHT22;26355;45.528;9.234;2022-11-24T09:23:53;14.20;99.90
40670;DHT22;26355;45.528;9.234;2022-11-24T09:26:30;14.40;99.90
40670;DHT22;26355;45.528;9.234;2022-11-24T09:28:57;16.30;99.90
40670;DHT22;26355;45.528;9.234;2022-11-24T09:31:25;14.50;99.90
40670;DHT22;26355;45.528;9.234;2022-11-24T09:33:52;14.60;99.90
40670;DHT22;26355;45.528;9.234;2022-11-24T09:36:18;14.70;99.90
40670;DHT22;26355;45.528;9.234;2022-11-24T09:38:44;14.80;99.90
40670;DHT22;26355;45.528;9.234;2022-11-24T09:41:38;15.00;99.90
40670;DHT22;26355;45.528;9.234;2022-11-24T09:44:10;14.70;99.90
40670;DHT22;26355;45.528;9.234;2022-11-24T09:46:53;14.90;99.90
40670;DHT22;26355;45.528;9.234;2022-11-24T09:49:32;14.90;99.70
40670;DHT22;26355;45.528;9.234;2022-11-24T09:52:02;14.80;99.90
40670;DHT22;26355;45.528;9.234;2022-11-24T09:54:34;14.70;99.90
40670;DHT22;26355;45.528;9.234;2022-11-24T09:57:00;14.60;99.90
40670;DHT22;26355;45.528;9.234;2022-11-24T09:59:29;15.20;99.50
40670;DHT22;26355;45.528;9.234;2022-11-24T10:01:54;14.40;99.90
40670;DHT22;26355;45.528;9.234;2022-11-24T10:04:26;14.30;99.90
40670;DHT22;26355;45.528;9.234;2022-11-24T10:10:05;14.20;99.60
40670;DHT22;26355;45.528;9.234;2022-11-24T10:25:59;13.90;99.50
40670;DHT22;26355;45.528;9.234;2022-11-24T10:28:31;13.90;99.90
40670;DHT22;26355;45.528;9.234;2022-11-24T10:31:27;13.80;99.90
40670;DHT22;26355;45.528;9.234;2022-11-24T10:33:56;13.80;99.60
40670;DHT22;26355;45.528;9.234;2022-11-24T10:36:42;13.70;99.90
40670;DHT22;26355;45.528;9.234;2022-11-24T10:39:16;13.40;99.80
40670;DHT22;26355;45.528;9.234;2022-11-24T10:42:02;13.70;99.90
40670;DHT22;26355;45.528;9.234;2022-11-24T10:44:28;13.70;99.80
40670;DHT22;26355;45.528;9.234;2022-11-24T10:46:54;13.90;99.90
40670;DHT22;26355;45.528;9.234;2022-11-24T10:49:26;14.40;99.90
40670;DHT22;26355;45.528;9.234;2022-11-24T10:52:14;15.50;99.30
40670;DHT22;26355;45.528;9.234;2022-11-24T10:54:58;17.60;97.40
40670;DHT22;26355;45.528;9.234;2022-11-24T10:57:33;19.80;95.50
40670;DHT22;26355;45.528;9.234;2022-11-24T11:00:00;21.80;93.90
40670;DHT22;26355;45.528;9.234;2022-11-24T11:02:27;23.60;93.00
40670;DHT22;26355;45.528;9.234;2022-11-24T11:04:54;25.10;90.90
40670;DHT22;26355;45.528;9.234;2022-11-24T11:07:23;25.90;87.50
40670;DHT22;26355;45.528;9.234;2022-11-24T11:09:49;26.50;82.60
40670;DHT22;26355;45.528;9.234;2022-11-24T11:12:21;26.10;81.80
40670;DHT22;26355;45.528;9.234;2022-11-24T11:14:49;24.70;79.80
40670;DHT22;26355;45.528;9.234;2022-11-24T11:17:34;23.40;83.10
40670;DHT22;26355;45.528;9.234;2022-11-24T11:20:18;22.20;81.80
40670;DHT22;26355;45.528;9.234;2022-11-24T11:22:47;21.40;85.50
40670;DHT22;26355;45.528;9.234;2022-11-24T11:27:39;19.70;86.30
40670;DHT22;26355;45.528;9.234;2022-11-24T11:30:20;19.50;90.30
40670;DHT22;26355;45.528;9.234;2022-11-24T11:32:55;19.50;89.30
40670;DHT22;26355;45.528;9.234;2022-11-24T11:35:24;19.10;90.00
40670;DHT22;26355;45.528;9.234;2022-11-24T11:37:52;19.50;90.20
40670;DHT22;26355;45.528;9.234;2022-11-24T11:40:26;20.00;90.20
40670;DHT22;26355;45.528;9.234;2022-11-24T11:42:57;20.20;89.50
40670;DHT22;26355;45.528;9.234;2022-11-24T11:45:34;21.40;88.90
40670;DHT22;26355;45.528;9.234;2022-11-24T11:50:42;26.00;81.90
40670;DHT22;26355;45.528;9.234;2022-11-24T11:55:52;23.90;79.80
40670;DHT22;26355;45.528;9.234;2022-11-24T12:07:20;19.90;85.80
40670;DHT22;26355;45.528;9.234;2022-11-24T12:10:22;19.30;88.90
40670;DHT22;26355;45.528;9.234;2022-11-24T12:13:21;18.90;88.00
40670;DHT22;26355;45.528;9.234;2022-11-24T12:15:52;18.50;88.70
40670;DHT22;26355;45.528;9.234;2022-11-24T12:27:23;17.10;91.40
40670;DHT22;26355;45.528;9.234;2022-11-24T12:38:31;16.50;92.20
40670;DHT22;26355;45.528;9.234;2022-11-24T12:41:15;16.30;92.20
40670;DHT22;26355;45.528;9.234;2022-11-24T12:43:50;16.30;92.60
40670;DHT22;26355;45.528;9.234;2022-11-24T12:51:34;16.30;92.80
40670;DHT22;26355;45.528;9.234;2022-11-24T12:54:09;16.50;92.70
40670;DHT22;26355;45.528;9.234;2022-11-24T12:56:52;16.40;92.90
40670;DHT22;26355;45.528;9.234;2022-11-24T12:59:51;16.40;93.10
40670;DHT22;26355;45.528;9.234;2022-11-24T13:08:00;16.50;93.10
40670;DHT22;26355;45.528;9.234;2022-11-24T13:10:28;16.30;92.90
40670;DHT22;26355;45.528;9.234;2022-11-24T13:13:01;16.30;93.30
40670;DHT22;26355;45.528;9.234;2022-11-24T13:15:29;16.10;93.10
40670;DHT22;26355;45.528;9.234;2022-11-24T13:17:55;16.10;93.40
40670;DHT22;26355;45.528;9.234;2022-11-24T13:20:28;16.00;93.30
40670;DHT22;26355;45.528;9.234;2022-11-24T13:22:56;16.20;93.60
40670;DHT22;26355;45.528;9.234;2022-11-24T13:25:27;16.30;93.80
40670;DHT22;26355;45.528;9.234;2022-11-24T13:27:54;16.20;93.70
40670;DHT22;26355;45.528;9.234;2022-11-24T13:38:51;16.20;94.20
40670;DHT22;26355;45.528;9.234;2022-11-24T13:49:21;16.20;94.30
40670;DHT22;26355;45.528;9.234;2022-11-24T13:51:47;16.20;94.60
40670;DHT22;26355;45.528;9.234;2022-11-24T13:54:13;16.20;94.60
40670;DHT22;26355;45.528;9.234;2022-11-24T13:56:39;16.20;95.00
40670;DHT22;26355;45.528;9.234;2022-11-24T13:59:18;16.20;94.90
40670;DHT22;26355;45.528;9.234;2022-11-24T14:01:56;16.20;95.00
40670;DHT22;26355;45.528;9.234;2022-11-24T14:04:23;16.20;95.10
40670;DHT22;26355;45.528;9.234;2022-11-24T14:09:39;16.10;95.00
40670;DHT22;26355;45.528;9.234;2022-11-24T14:14:45;16.10;94.80
40670;DHT22;26355;45.528;9.234;2022-11-24T14:19:41;16.10;95.00
40670;DHT22;26355;45.528;9.234;2022-11-24T14:22:15;16.10;95.00
40670;DHT22;26355;45.528;9.234;2022-11-24T14:24:42;16.00;95.10
40670;DHT22;26355;45.528;9.234;2022-11-24T14:27:14;16.10;95.20
40670;DHT22;26355;45.528;9.234;2022-11-24T14:29:52;16.20;95.10
40670;DHT22;26355;45.528;9.234;2022-11-24T14:32:18;16.30;95.10
40670;DHT22;26355;45.528;9.234;2022-11-24T14:34:43;16.40;95.10
40670;DHT22;26355;45.528;9.234;2022-11-24T14:37:09;16.50;95.10
40670;DHT22;26355;45.528;9.234;2022-11-24T14:39:40;16.70;95.10
40670;DHT22;26355;45.528;9.234;2022-11-24T14:42:15;16.60;94.90
40670;DHT22;26355;45.528;9.234;2022-11-24T14:47:35;16.70;94.60
40670;DHT22;26355;45.528;9.234;2022-11-24T14:50:10;16.70;94.20
40670;DHT22;26355;45.528;9.234;2022-11-24T14:52:51;16.80;93.70
40670;DHT22;26355;45.528;9.234;2022-11-24T14:55:26;16.80;93.80
40670;DHT22;26355;45.528;9.234;2022-11-24T14:57:52;16.90;93.40
40670;DHT22;26355;45.528;9.234;2022-11-24T15:00:25;17.00;94.00
40670;DHT22;26355;45.528;9.234;2022-11-24T15:03:08;16.90;93.80
40670;DHT22;26355;45.528;9.234;2022-11-24T15:05:52;16.90;93.70
40670;DHT22;26355;45.528;9.234;2022-11-24T15:08:18;16.90;93.80
40670;DHT22;26355;45.528;9.234;2022-11-24T15:10:44;16.80;94.30
40670;DHT22;26355;45.528;9.234;2022-11-24T15:13:19;16.70;94.50
40670;DHT22;26355;45.528;9.234;2022-11-24T15:16:01;16.70;94.90
40670;DHT22;26355;45.528;9.234;2022-11-24T15:20:55;16.50;94.80
40670;DHT22;26355;45.528;9.234;2022-11-24T15:23:22;16.50;94.80
40670;DHT22;26355;45.528;9.234;2022-11-24T15:25:50;16.40;94.90
40670;DHT22;26355;45.528;9.234;2022-11-24T15:28:15;16.30;95.00
40670;DHT22;26355;45.528;9.234;2022-11-24T15:30:41;17.00;95.30
40670;DHT22;26355;45.528;9.234;2022-11-24T15:33:15;16.30;95.20
40670;DHT22;26355;45.528;9.234;2022-11-24T15:35:41;16.10;95.60
40670;DHT22;26355;45.528;9.234;2022-11-24T15:38:07;16.20;95.90
40670;DHT22;26355;45.528;9.234;2022-11-24T15:40:33;16.00;96.20
40670;DHT22;26355;45.528;9.234;2022-11-24T15:43:00;16.00;96.40
40670;DHT22;26355;45.528;9.234;2022-11-24T15:45:26;16.00;96.70
40670;DHT22;26355;45.528;9.234;2022-11-24T15:47:51;15.70;97.20
40670;DHT22;26355;45.528;9.234;2022-11-24T15:50:20;15.70;97.20
40670;DHT22;26355;45.528;9.234;2022-11-24T15:52:46;15.60;97.50
40670;DHT22;26355;45.528;9.234;2022-11-24T15:57:41;15.30;98.00
40670;DHT22;26355;45.528;9.234;2022-11-24T16:00:12;15.20;98.20
40670;DHT22;26355;45.528;9.234;2022-11-24T16:02:38;15.10;98.60
40670;DHT22;26355;45.528;9.234;2022-11-24T16:05:04;15.00;98.80
40670;DHT22;26355;45.528;9.234;2022-11-24T16:07:29;14.90;99.20
40670;DHT22;26355;45.528;9.234;2022-11-24T16:09:56;14.80;99.50
40670;DHT22;26355;45.528;9.234;2022-11-24T16:12:22;15.20;99.80
40670;DHT22;26355;45.528;9.234;2022-11-24T16:14:49;14.70;99.80
40670;DHT22;26355;45.528;9.234;2022-11-24T16:17:15;14.70;99.90
40670;DHT22;26355;45.528;9.234;2022-11-24T16:19:40;15.00;99.90
40670;DHT22;26355;45.528;9.234;2022-11-24T16:22:06;14.50;99.90
40670;DHT22;26355;45.528;9.234;2022-11-24T16:24:32;14.60;99.90
40670;DHT22;26355;45.528;9.234;2022-11-24T16:26:57;14.50;99.90
40670;DHT22;26355;45.528;9.234;2022-11-24T16:29:23;14.60;99.90
40670;DHT22;26355;45.528;9.234;2022-11-24T16:31:50;14.40;99.90
40670;DHT22;26355;45.528;9.234;2022-11-24T16:34:16;14.40;99.90
40670;DHT22;26355;45.528;9.234;2022-11-24T16:36:41;14.40;99.90
40670;DHT22;26355;45.528;9.234;2022-11-24T16:39:07;14.90;99.90
40670;DHT22;26355;45.528;9.234;2022-11-24T16:41:34;14.20;99.90
40670;DHT22;26355;45.528;9.234;2022-11-24T16:44:00;14.20;99.90
40670;DHT22;26355;45.528;9.234;2022-11-24T16:46:26;14.10;99.90
40670;DHT22;26355;45.528;9.234;2022-11-24T16:48:52;14.20;99.90
40670;DHT22;26355;45.528;9.234;2022-11-24T16:51:21;14.00;99.90
40670;DHT22;26355;45.528;9.234;2022-11-24T16:53:47;14.10;99.90
40670;DHT22;26355;45.528;9.234;2022-11-24T16:56:13;14.00;99.90
40670;DHT22;26355;45.528;9.234;2022-11-24T16:58:40;13.90;99.90
40670;DHT22;26355;45.528;9.234;2022-11-24T17:01:11;14.00;99.90
40670;DHT22;26355;45.528;9.234;2022-11-24T17:03:37;13.80;99.90
40670;DHT22;26355;45.528;9.234;2022-11-24T17:06:04;13.70;99.90
40670;DHT22;26355;45.528;9.234;2022-11-24T17:08:30;13.80;99.90
40670;DHT22;26355;45.528;9.234;2022-11-24T17:10:56;13.70;99.90
40670;DHT22;26355;45.528;9.234;2022-11-24T17:13:22;13.80;99.90
40670;DHT22;26355;45.528;9.234;2022-11-24T17:15:48;13.50;99.90
40670;DHT22;26355;45.528;9.234;2022-11-24T17:18:14;13.60;99.90
40670;DHT22;26355;45.528;9.234;2022-11-24T17:20:39;13.60;99.90
40670;DHT22;26355;45.528;9.234;2022-11-24T17:23:05;13.50;99.90
40670;DHT22;26355;45.528;9.234;2022-11-24T17:25:31;13.80;99.90
40670;DHT22;26355;45.528;9.234;2022-11-24T17:27:57;13.50;99.90
40670;DHT22;26355;45.528;9.234;2022-11-24T17:30:23;14.70;99.90
40670;DHT22;26355;45.528;9.234;2022-11-24T17:32:48;13.40;99.90